createdAt,value
2018-12-04T00:00:48.065Z,99.02
2018-12-04T00:01:48.051Z,99.33
2018-12-04T00:02:48.037Z,98.82
2018-12-04T00:03:48.039Z,99.54
2018-12-04T00:04:48.013Z,98.71
2018-12-04T00:05:48.001Z,99.18
2018-12-04T00:06:47.997Z,98.92
2018-12-04T00:07:47.977Z,97.89
2018-12-04T00:08:47.966Z,98.71
2018-12-04T00:09:47.974Z,98.61
2018-12-04T00:10:47.941Z,97.27
2018-12-04T00:11:47.938Z,98.10
2018-12-04T00:12:47.930Z,98.10
2018-12-04T00:13:47.913Z,98.20
2018-12-04T00:14:47.918Z,97.99
2018-12-04T00:15:47.894Z,98.30
2018-12-04T00:16:47.881Z,98.10
2018-12-04T00:17:47.869Z,98.50
2018-12-04T00:18:47.861Z,98.61
2018-12-04T00:19:47.862Z,98.10
2018-12-04T00:20:47.838Z,98.82
2018-12-04T00:21:47.838Z,99.13
2018-12-04T00:22:47.854Z,98.61
2018-12-04T00:23:47.809Z,97.89
2018-12-04T00:24:47.807Z,98.82
2018-12-04T00:25:47.790Z,98.20
2018-12-04T00:26:47.770Z,97.78
2018-12-04T00:27:47.757Z,97.17
2018-12-04T00:28:47.753Z,97.48
2018-12-04T00:29:47.734Z,97.99
2018-12-04T00:30:47.746Z,97.06
2018-12-04T00:31:47.713Z,97.58
2018-12-04T00:32:47.706Z,97.58
2018-12-04T00:33:47.694Z,97.48
2018-12-04T00:34:47.681Z,97.89
2018-12-04T00:35:47.673Z,97.78
2018-12-04T00:36:47.673Z,97.58
2018-12-04T00:37:47.650Z,97.78
2018-12-04T00:38:47.641Z,97.99
2018-12-04T00:39:47.628Z,97.06
2018-12-04T00:40:47.621Z,97.48
2018-12-04T00:41:47.605Z,97.58
2018-12-04T00:42:47.618Z,97.42
2018-12-04T00:43:47.581Z,97.21
2018-12-04T00:44:47.565Z,97.38
2018-12-04T00:45:47.561Z,97.68
2018-12-04T00:46:47.549Z,97.27
2018-12-04T00:47:47.557Z,97.38
2018-12-04T00:48:47.523Z,97.99
2018-12-04T00:49:47.512Z,97.73
2018-12-04T00:50:47.501Z,97.58
2018-12-04T00:51:47.497Z,97.68
2018-12-04T00:52:47.497Z,97.42
2018-12-04T00:53:47.466Z,97.83
2018-12-04T00:54:47.456Z,97.52
2018-12-04T00:55:47.448Z,97.83
2018-12-04T00:56:47.436Z,97.58
2018-12-04T00:57:47.429Z,97.38
2018-12-04T00:58:47.428Z,97.27
2018-12-04T00:59:47.400Z,96.91
2018-12-04T01:00:47.388Z,97.83
2018-12-04T01:01:47.380Z,97.89
2018-12-04T01:02:47.372Z,97.31
2018-12-04T01:03:47.356Z,97.06
2018-12-04T01:04:47.363Z,97.94
2018-12-04T01:05:47.332Z,97.58
2018-12-04T01:06:47.321Z,97.52
2018-12-04T01:07:47.308Z,97.42
2018-12-04T01:08:47.297Z,97.11
2018-12-04T01:09:47.308Z,96.18
2018-12-04T01:10:47.281Z,96.59
2018-12-04T01:11:47.272Z,96.49
2018-12-04T01:12:47.313Z,96.28
2018-12-04T01:13:47.245Z,96.59
2018-12-04T01:14:47.236Z,96.39
2018-12-04T01:15:47.244Z,96.28
2018-12-04T01:16:47.214Z,96.28
2018-12-04T01:17:47.200Z,96.18
2018-12-04T01:18:47.197Z,96.70
2018-12-04T01:19:47.179Z,96.70
2018-12-04T01:20:47.173Z,96.18
2018-12-04T01:21:47.169Z,96.28
2018-12-04T01:22:47.145Z,96.44
2018-12-04T01:23:47.133Z,96.91
2018-12-04T01:24:47.129Z,97.21
2018-12-04T01:25:47.116Z,97.21
2018-12-04T01:26:47.104Z,96.53
2018-12-04T01:27:47.108Z,96.39
2018-12-04T01:28:47.084Z,96.44
2018-12-04T01:29:47.064Z,96.18
2018-12-04T01:30:47.056Z,97.21
2018-12-04T01:31:47.040Z,96.12
2018-12-04T01:32:47.032Z,96.18
2018-12-04T01:33:47.060Z,96.59
2018-12-04T01:34:47.011Z,96.74
2018-12-04T01:35:46.996Z,96.91
2018-12-04T01:36:46.989Z,96.44
2018-12-04T01:37:46.977Z,96.39
2018-12-04T01:38:46.968Z,96.28
2018-12-04T01:39:46.976Z,96.95
2018-12-04T01:40:46.944Z,96.49
2018-12-04T01:41:46.930Z,96.28
2018-12-04T01:42:46.916Z,96.80
2018-12-04T01:43:46.905Z,97.16
2018-12-04T01:44:46.901Z,97.01
2018-12-04T01:45:46.906Z,96.53
2018-12-04T01:46:46.886Z,96.39
2018-12-04T01:47:46.865Z,96.39
2018-12-04T01:48:46.848Z,96.80
2018-12-04T01:49:46.840Z,96.91
2018-12-04T01:50:46.857Z,97.21
2018-12-04T01:51:46.816Z,97.16
2018-12-04T01:52:46.809Z,96.91
2018-12-04T01:53:46.792Z,96.18
2018-12-04T01:54:46.784Z,96.39
2018-12-04T01:55:46.779Z,96.39
2018-12-04T01:56:46.784Z,96.39
2018-12-04T01:57:46.752Z,96.28
2018-12-04T01:58:46.752Z,96.70
2018-12-04T01:59:46.733Z,96.53
2018-12-04T02:00:46.716Z,96.64
2018-12-04T02:01:46.704Z,96.91
2018-12-04T02:02:46.710Z,96.80
2018-12-04T02:03:47.093Z,96.28
2018-12-04T02:04:46.696Z,96.23
2018-12-04T02:05:46.664Z,96.23
2018-12-04T02:06:46.649Z,96.44
2018-12-04T02:07:46.640Z,96.64
2018-12-04T02:08:46.632Z,96.59
2018-12-04T02:09:46.632Z,97.11
2018-12-04T02:10:46.616Z,96.80
2018-12-04T02:11:46.596Z,96.91
2018-12-04T02:12:46.588Z,96.74
2018-12-04T02:13:46.576Z,96.53
2018-12-04T02:14:46.564Z,96.53
2018-12-04T02:15:46.568Z,96.49
2018-12-04T02:16:46.540Z,96.39
2018-12-04T02:17:46.532Z,96.59
2018-12-04T02:18:46.524Z,96.74
2018-12-04T02:19:46.512Z,96.23
2018-12-04T02:20:46.511Z,96.53
2018-12-04T02:21:46.497Z,96.49
2018-12-04T02:22:46.472Z,96.12
2018-12-04T02:23:46.461Z,96.39
2018-12-04T02:24:46.462Z,96.84
2018-12-04T02:25:46.439Z,96.12
2018-12-04T02:26:46.454Z,96.74
2018-12-04T02:27:46.420Z,96.64
2018-12-04T02:28:46.403Z,96.74
2018-12-04T02:29:46.400Z,96.12
2018-12-04T02:30:46.380Z,96.74
2018-12-04T02:31:46.376Z,96.44
2018-12-04T02:32:46.387Z,96.84
2018-12-04T02:33:46.356Z,96.64
2018-12-04T02:34:46.342Z,96.74
2018-12-04T02:35:46.341Z,96.84
2018-12-04T02:36:46.312Z,96.33
2018-12-04T02:37:46.304Z,95.92
2018-12-04T02:38:46.308Z,96.59
2018-12-04T02:39:46.285Z,96.53
2018-12-04T02:40:46.277Z,96.74
2018-12-04T02:41:46.267Z,96.53
2018-12-04T02:42:46.251Z,96.44
2018-12-04T02:43:46.264Z,96.12
2018-12-04T02:44:46.229Z,96.84
2018-12-04T02:45:46.220Z,96.49
2018-12-04T02:46:46.205Z,96.53
2018-12-04T02:47:46.197Z,96.33
2018-12-04T02:48:46.208Z,96.84
2018-12-04T02:49:46.196Z,96.64
2018-12-04T02:50:46.160Z,96.12
2018-12-04T02:51:46.155Z,96.74
2018-12-04T02:52:46.140Z,97.05
2018-12-04T02:53:46.128Z,96.44
2018-12-04T02:54:46.116Z,96.64
2018-12-04T02:55:46.139Z,96.53
2018-12-04T02:56:46.099Z,96.44
2018-12-04T02:57:46.081Z,96.33
2018-12-04T02:58:46.073Z,96.44
2018-12-04T02:59:46.056Z,96.44
2018-12-04T03:00:46.060Z,97.05
2018-12-04T03:01:46.051Z,96.53
2018-12-04T03:02:46.033Z,96.74
2018-12-04T03:03:46.012Z,96.44
2018-12-04T03:04:46.005Z,96.95
2018-12-04T03:05:45.995Z,96.74
2018-12-04T03:06:46.000Z,96.33
2018-12-04T03:07:45.972Z,96.74
2018-12-04T03:08:45.968Z,96.74
2018-12-04T03:09:45.956Z,96.95
2018-12-04T03:10:45.940Z,96.84
2018-12-04T03:11:45.925Z,96.84
2018-12-04T03:12:45.944Z,96.33
2018-12-04T03:13:45.904Z,96.12
2018-12-04T03:14:45.902Z,96.74
2018-12-04T03:15:45.893Z,96.95
2018-12-04T03:16:45.872Z,96.74
2018-12-04T03:17:45.860Z,96.74
2018-12-04T03:18:45.869Z,97.16
2018-12-04T03:19:45.837Z,96.95
2018-12-04T03:20:45.824Z,97.26
2018-12-04T03:21:45.820Z,96.84
2018-12-04T03:22:45.805Z,97.26
2018-12-04T03:23:45.796Z,96.74
2018-12-04T03:24:45.800Z,97.16
2018-12-04T03:25:45.773Z,96.95
2018-12-04T03:26:45.758Z,96.95
2018-12-04T03:27:45.748Z,96.84
2018-12-04T03:28:45.743Z,97.05
2018-12-04T03:29:45.740Z,96.84
2018-12-04T03:30:45.713Z,97.26
2018-12-04T03:31:45.721Z,96.84
2018-12-04T03:32:45.689Z,97.05
2018-12-04T03:33:45.699Z,97.05
2018-12-04T03:34:45.668Z,96.95
2018-12-04T03:35:45.677Z,96.95
2018-12-04T03:36:45.645Z,96.84
2018-12-04T03:37:45.637Z,96.95
2018-12-04T03:38:45.629Z,97.05
2018-12-04T03:39:45.616Z,97.09
2018-12-04T03:40:45.607Z,97.20
2018-12-04T03:41:45.663Z,97.51
2018-12-04T03:42:45.585Z,98.02
2018-12-04T03:43:45.568Z,97.61
2018-12-04T03:44:45.556Z,97.61
2018-12-04T03:45:45.544Z,97.61
2018-12-04T03:46:45.557Z,97.61
2018-12-04T03:47:45.533Z,97.82
2018-12-04T03:48:45.516Z,97.82
2018-12-04T03:49:45.504Z,97.82
2018-12-04T03:50:45.488Z,97.34
2018-12-04T03:51:45.476Z,97.30
2018-12-04T03:52:45.489Z,98.07
2018-12-04T03:53:45.460Z,97.66
2018-12-04T03:54:45.449Z,97.97
2018-12-04T03:55:45.436Z,97.55
2018-12-04T03:56:45.428Z,98.02
2018-12-04T03:57:45.444Z,98.07
2018-12-04T03:58:45.412Z,98.07
2018-12-04T03:59:45.392Z,98.49
2018-12-04T04:00:45.376Z,98.90
2018-12-04T04:01:45.380Z,98.38
2018-12-04T04:02:45.361Z,98.18
2018-12-04T04:03:45.361Z,98.13
2018-12-04T04:04:45.337Z,98.18
2018-12-04T04:05:45.328Z,97.30
2018-12-04T04:06:45.317Z,98.38
2018-12-04T04:07:45.307Z,97.72
2018-12-04T04:08:45.301Z,97.72
2018-12-04T04:09:45.294Z,97.51
2018-12-04T04:10:45.266Z,97.72
2018-12-04T04:11:45.259Z,97.51
2018-12-04T04:12:45.249Z,97.76
2018-12-04T04:13:45.245Z,97.92
2018-12-04T04:14:45.241Z,97.86
2018-12-04T04:15:45.216Z,97.66
2018-12-04T04:16:45.205Z,98.02
2018-12-04T04:17:45.192Z,97.61
2018-12-04T04:18:45.178Z,96.69
2018-12-04T04:19:45.173Z,97.20
2018-12-04T04:20:45.182Z,97.30
2018-12-04T04:21:45.148Z,97.09
2018-12-04T04:22:45.136Z,97.20
2018-12-04T04:23:45.125Z,97.72
2018-12-04T04:24:45.113Z,97.92
2018-12-04T04:25:45.109Z,96.89
2018-12-04T04:26:45.116Z,96.58
2018-12-04T04:27:45.077Z,96.79
2018-12-04T04:28:45.071Z,96.89
2018-12-04T04:29:45.056Z,96.69
2018-12-04T04:30:45.046Z,96.27
2018-12-04T04:31:45.040Z,96.48
2018-12-04T04:32:45.049Z,96.37
2018-12-04T04:33:45.012Z,96.79
2018-12-04T04:34:45.025Z,96.27
2018-12-04T04:35:44.993Z,96.69
2018-12-04T04:36:44.977Z,95.76
2018-12-04T04:37:44.969Z,96.69
2018-12-04T04:38:44.960Z,96.37
2018-12-04T04:39:44.941Z,96.37
2018-12-04T04:40:44.957Z,95.96
2018-12-04T04:41:44.924Z,96.06
2018-12-04T04:42:44.915Z,95.65
2018-12-04T04:43:44.904Z,96.27
2018-12-04T04:44:44.886Z,95.65
2018-12-04T04:45:44.883Z,95.34
2018-12-04T04:46:44.892Z,96.17
2018-12-04T04:47:44.854Z,95.45
2018-12-04T04:48:44.849Z,94.93
2018-12-04T04:49:44.837Z,95.03
2018-12-04T04:50:44.825Z,94.93
2018-12-04T04:51:51.853Z,95.65
2018-12-04T04:52:44.801Z,94.72
2018-12-04T04:53:44.785Z,95.24
2018-12-04T04:54:44.778Z,94.82
2018-12-04T04:55:44.770Z,95.34
2018-12-04T04:56:44.756Z,94.93
2018-12-04T04:57:44.765Z,95.03
2018-12-04T04:58:44.729Z,94.93
2018-12-04T04:59:44.726Z,95.45
2018-12-04T05:00:44.715Z,95.39
2018-12-04T05:01:44.699Z,94.97
2018-12-04T05:02:44.705Z,95.18
2018-12-04T05:03:44.692Z,95.59
2018-12-04T05:04:44.685Z,95.18
2018-12-04T05:05:44.651Z,95.18
2018-12-04T05:06:44.648Z,95.07
2018-12-04T05:07:44.636Z,95.59
2018-12-04T05:08:44.624Z,95.28
2018-12-04T05:09:44.609Z,95.49
2018-12-04T05:10:44.633Z,95.28
2018-12-04T05:11:44.589Z,95.32
2018-12-04T05:12:44.588Z,95.32
2018-12-04T05:13:44.569Z,95.22
2018-12-04T05:14:44.552Z,95.53
2018-12-04T05:15:44.543Z,95.22
2018-12-04T05:16:44.555Z,95.43
2018-12-04T05:17:44.520Z,95.53
2018-12-04T05:18:44.517Z,95.74
2018-12-04T05:19:44.500Z,95.22
2018-12-04T05:20:44.488Z,95.32
2018-12-04T05:21:44.476Z,95.02
2018-12-04T05:22:44.475Z,95.32
2018-12-04T05:23:44.470Z,94.92
2018-12-04T05:24:44.441Z,94.71
2018-12-04T05:25:44.432Z,95.12
2018-12-04T05:26:44.451Z,94.92
2018-12-04T05:27:44.411Z,95.37
2018-12-04T05:28:44.395Z,94.96
2018-12-04T05:29:44.393Z,95.17
2018-12-04T05:30:44.379Z,95.37
2018-12-04T05:31:44.367Z,95.27
2018-12-04T05:32:44.384Z,95.57
2018-12-04T05:33:44.342Z,95.06
2018-12-04T05:34:44.335Z,95.57
2018-12-04T05:35:44.324Z,95.48
2018-12-04T05:36:44.312Z,95.57
2018-12-04T05:37:44.303Z,95.10
2018-12-04T05:38:44.416Z,95.62
2018-12-04T05:39:44.278Z,95.42
2018-12-04T05:40:44.291Z,95.31
2018-12-04T05:41:44.251Z,95.42
2018-12-04T05:42:44.520Z,95.00
2018-12-04T05:43:44.231Z,94.96
2018-12-04T05:44:44.222Z,95.10
2018-12-04T05:45:44.222Z,95.52
2018-12-04T05:46:44.215Z,95.10
2018-12-04T05:47:44.187Z,95.00
2018-12-04T05:48:44.176Z,95.21
2018-12-04T05:49:44.163Z,95.83
2018-12-04T05:50:44.157Z,95.00
2018-12-04T05:51:44.150Z,95.42
2018-12-04T05:52:53.674Z,95.56
2018-12-04T05:53:44.138Z,95.42
2018-12-04T05:54:44.109Z,95.21
2018-12-04T05:55:44.098Z,95.25
2018-12-04T05:56:44.092Z,95.31
2018-12-04T05:57:51.213Z,95.94
2018-12-04T05:58:44.061Z,95.31
2018-12-04T05:59:44.081Z,95.42
2018-12-04T06:00:44.048Z,95.77
2018-12-04T06:01:44.029Z,95.04
2018-12-04T06:02:44.021Z,95.46
2018-12-04T06:03:44.004Z,95.77
2018-12-04T06:04:44.001Z,95.00
2018-12-04T06:05:44.010Z,95.36
2018-12-04T06:06:43.976Z,95.36
2018-12-04T06:07:43.964Z,95.56
2018-12-04T06:08:43.993Z,95.04
2018-12-04T06:09:43.948Z,95.25
2018-12-04T06:10:43.936Z,95.67
2018-12-04T06:11:43.963Z,95.61
2018-12-04T06:12:43.908Z,95.50
2018-12-04T06:13:43.908Z,95.71
2018-12-04T06:14:43.888Z,95.50
2018-12-04T06:15:43.876Z,95.71
2018-12-04T06:16:43.876Z,95.71
2018-12-04T06:17:43.852Z,95.92
2018-12-04T06:18:43.892Z,96.64
2018-12-04T06:19:43.832Z,96.64
2018-12-04T06:20:43.830Z,96.23
2018-12-04T06:21:43.841Z,96.75
2018-12-04T06:22:43.804Z,96.64
2018-12-04T06:23:43.787Z,96.64
2018-12-04T06:24:43.855Z,96.75
2018-12-04T06:25:43.769Z,97.16
2018-12-04T06:26:43.791Z,96.69
2018-12-04T06:27:43.772Z,96.69
2018-12-04T06:28:43.733Z,96.69
2018-12-04T06:29:43.788Z,96.89
2018-12-04T06:30:43.763Z,97.00
2018-12-04T06:31:43.699Z,97.00
2018-12-04T06:32:43.711Z,97.31
2018-12-04T06:33:43.692Z,96.79
2018-12-04T06:34:43.663Z,96.58
2018-12-04T06:35:43.692Z,96.79
2018-12-04T06:36:43.647Z,96.89
2018-12-04T06:37:43.636Z,96.79
2018-12-04T06:38:43.625Z,97.31
2018-12-04T06:39:43.627Z,97.31
2018-12-04T06:40:43.596Z,97.04
2018-12-04T06:41:43.588Z,96.83
2018-12-04T06:42:43.620Z,96.48
2018-12-04T06:43:43.585Z,97.35
2018-12-04T06:44:46.713Z,97.41
2018-12-04T06:45:43.568Z,97.41
2018-12-04T06:46:43.536Z,97.04
2018-12-04T06:47:43.524Z,97.35
2018-12-04T06:48:43.520Z,97.25
2018-12-04T06:49:43.528Z,97.35
2018-12-04T06:50:43.507Z,97.45
2018-12-04T06:51:43.475Z,97.25
2018-12-04T06:52:43.472Z,97.25
2018-12-04T06:53:43.456Z,97.25
2018-12-04T06:54:43.448Z,96.52
2018-12-04T06:55:43.452Z,97.45
2018-12-04T06:56:43.424Z,97.45
2018-12-04T06:57:43.416Z,96.73
2018-12-04T06:58:43.439Z,97.14
2018-12-04T06:59:43.403Z,97.14
2018-12-04T07:00:43.407Z,96.83
2018-12-04T07:01:43.372Z,97.14
2018-12-04T07:02:43.356Z,97.35
2018-12-04T07:03:43.343Z,97.04
2018-12-04T07:04:43.340Z,97.35
2018-12-04T07:05:43.328Z,96.73
2018-12-04T07:06:43.332Z,97.04
2018-12-04T07:07:43.364Z,97.14
2018-12-04T07:08:43.292Z,97.14
2018-12-04T07:09:43.284Z,96.42
2018-12-04T07:10:43.339Z,96.42
2018-12-04T07:11:43.270Z,97.35
2018-12-04T07:12:43.248Z,97.25
2018-12-04T07:13:43.240Z,96.83
2018-12-04T07:14:43.232Z,97.25
2018-12-04T07:15:43.216Z,96.48
2018-12-04T07:16:43.238Z,96.48
2018-12-04T07:17:43.189Z,96.27
2018-12-04T07:18:43.176Z,96.79
2018-12-04T07:19:43.169Z,96.48
2018-12-04T07:20:43.180Z,97.00
2018-12-04T07:21:43.145Z,96.48
2018-12-04T07:22:43.151Z,96.69
2018-12-04T07:23:43.125Z,96.17
2018-12-04T07:24:43.125Z,96.48
2018-12-04T07:25:43.107Z,96.79
2018-12-04T07:26:43.092Z,96.69
2018-12-04T07:27:43.083Z,96.83
2018-12-04T07:28:43.095Z,96.52
2018-12-04T07:29:43.060Z,97.20
2018-12-04T07:30:43.083Z,97.25
2018-12-04T07:31:43.070Z,97.10
2018-12-04T07:32:43.027Z,96.52
2018-12-04T07:33:43.015Z,96.31
2018-12-04T07:34:43.029Z,96.52
2018-12-04T07:35:42.994Z,96.48
2018-12-04T07:36:42.988Z,96.31
2018-12-04T07:37:42.972Z,96.62
2018-12-04T07:38:42.995Z,96.42
2018-12-04T07:39:42.951Z,96.62
2018-12-04T07:40:43.529Z,96.73
2018-12-04T07:41:42.924Z,97.04
2018-12-04T07:42:42.947Z,96.21
2018-12-04T07:43:42.903Z,96.52
2018-12-04T07:44:42.888Z,96.94
2018-12-04T07:45:42.935Z,97.25
2018-12-04T07:46:42.868Z,96.73
2018-12-04T07:47:42.859Z,96.94
2018-12-04T07:48:42.843Z,96.31
2018-12-04T07:49:42.840Z,96.31
2018-12-04T07:50:42.835Z,96.94
2018-12-04T07:51:42.815Z,96.21
2018-12-04T07:52:42.799Z,96.21
2018-12-04T07:53:42.794Z,96.52
2018-12-04T07:54:42.786Z,96.47
2018-12-04T07:55:42.792Z,97.14
2018-12-04T07:56:42.788Z,96.31
2018-12-04T07:57:42.748Z,96.42
2018-12-04T07:58:42.736Z,96.73
2018-12-04T07:59:42.735Z,97.09
2018-12-04T08:00:42.719Z,96.78
2018-12-04T08:01:42.731Z,96.78
2018-12-04T08:02:42.703Z,97.25
2018-12-04T08:03:42.692Z,96.88
2018-12-04T08:04:42.683Z,97.29
2018-12-04T08:05:42.660Z,96.73
2018-12-04T08:06:42.651Z,96.78
2018-12-04T08:07:42.711Z,97.09
2018-12-04T08:08:42.627Z,97.04
2018-12-04T08:09:42.615Z,96.83
2018-12-04T08:10:42.611Z,96.94
2018-12-04T08:11:42.591Z,96.36
2018-12-04T08:12:42.595Z,97.29
2018-12-04T08:13:42.571Z,97.14
2018-12-04T08:14:42.556Z,96.83
2018-12-04T08:15:42.578Z,96.78
2018-12-04T08:16:42.531Z,96.31
2018-12-04T08:17:43.064Z,97.04
2018-12-04T08:18:42.539Z,96.83
2018-12-04T08:19:42.506Z,96.11
2018-12-04T08:20:42.498Z,95.80
2018-12-04T08:21:42.487Z,95.39
2018-12-04T08:22:42.474Z,95.18
2018-12-04T08:23:42.459Z,95.18
2018-12-04T08:24:42.487Z,94.93
2018-12-04T08:25:42.438Z,95.54
2018-12-04T08:26:42.422Z,95.24
2018-12-04T08:27:42.414Z,96.89
2018-12-04T08:28:42.406Z,95.54
2018-12-04T08:29:42.406Z,95.86
2018-12-04T08:30:42.382Z,95.96
2018-12-04T08:31:42.375Z,95.44
2018-12-04T08:32:42.363Z,95.24
2018-12-04T08:33:42.350Z,95.44
2018-12-04T08:34:42.398Z,95.14
2018-12-04T08:35:42.358Z,94.72
2018-12-04T08:36:42.318Z,94.93
2018-12-04T08:37:42.302Z,95.24
2018-12-04T08:38:42.335Z,95.03
2018-12-04T08:39:42.278Z,95.54
2018-12-04T08:40:42.266Z,95.54
2018-12-04T08:41:42.310Z,95.14
2018-12-04T08:42:42.247Z,95.03
2018-12-04T08:43:42.243Z,94.41
2018-12-04T08:44:42.235Z,95.24
2018-12-04T08:45:42.211Z,94.82
2018-12-04T08:46:42.218Z,94.62
2018-12-04T08:47:42.222Z,94.31
2018-12-04T08:48:42.187Z,94.72
2018-12-04T08:49:42.174Z,93.79
2018-12-04T08:50:42.159Z,94.82
2018-12-04T08:51:42.148Z,94.31
2018-12-04T08:52:42.159Z,95.14
2018-12-04T08:53:42.138Z,94.93
2018-12-04T08:54:42.114Z,94.76
2018-12-04T08:55:42.107Z,95.44
2018-12-04T08:56:42.124Z,95.75
2018-12-04T08:57:42.094Z,94.35
2018-12-04T08:58:42.074Z,95.49
2018-12-04T08:59:42.066Z,94.97
2018-12-04T09:00:42.060Z,94.51
2018-12-04T09:01:42.038Z,95.14
2018-12-04T09:02:42.022Z,94.76
2018-12-04T09:03:42.030Z,94.62
2018-12-04T09:04:42.051Z,94.93
2018-12-04T09:05:41.990Z,95.59
2018-12-04T09:06:41.998Z,94.31
2018-12-04T09:07:41.998Z,94.51
2018-12-04T09:08:41.994Z,93.99
2018-12-04T09:09:41.975Z,94.10
2018-12-04T09:10:41.934Z,93.68
2018-12-04T09:11:41.931Z,93.68
2018-12-04T09:12:41.914Z,93.99
2018-12-04T09:13:41.907Z,93.99
2018-12-04T09:14:41.942Z,93.58
2018-12-04T09:15:41.903Z,93.85
2018-12-04T09:16:41.875Z,93.85
2018-12-04T09:17:41.867Z,93.64
2018-12-04T09:18:41.848Z,94.26
2018-12-04T09:19:41.914Z,94.16
2018-12-04T09:20:41.865Z,93.95
2018-12-04T09:21:41.832Z,93.64
2018-12-04T09:22:41.847Z,94.12
2018-12-04T09:23:41.836Z,92.81
2018-12-04T09:24:41.785Z,92.91
2018-12-04T09:25:41.832Z,92.50
2018-12-04T09:26:41.775Z,93.29
2018-12-04T09:27:41.767Z,91.84
2018-12-04T09:28:41.734Z,92.57
2018-12-04T09:29:41.788Z,91.63
2018-12-04T09:30:41.747Z,92.25
2018-12-04T09:31:41.702Z,92.36
2018-12-04T09:32:41.710Z,91.63
2018-12-04T09:33:41.730Z,92.25
2018-12-04T09:34:41.678Z,92.05
2018-12-04T09:35:41.658Z,91.94
2018-12-04T09:36:41.670Z,92.25
2018-12-04T09:37:41.693Z,91.53
2018-12-04T09:38:41.632Z,91.63
2018-12-04T09:39:41.614Z,92.05
2018-12-04T09:40:41.606Z,91.94
2018-12-04T09:41:41.598Z,92.46
2018-12-04T09:42:41.581Z,92.87
2018-12-04T09:43:41.594Z,92.40
2018-12-04T09:44:41.562Z,92.36
2018-12-04T09:45:41.592Z,91.74
2018-12-04T09:46:41.537Z,91.84
2018-12-04T09:47:41.526Z,91.59
2018-12-04T09:48:41.514Z,92.57
2018-12-04T09:49:41.518Z,91.28
2018-12-04T09:50:41.498Z,91.07
2018-12-04T09:51:41.490Z,90.87
2018-12-04T09:52:41.474Z,90.14
2018-12-04T09:53:41.466Z,89.94
2018-12-04T09:54:41.478Z,90.83
2018-12-04T09:55:41.438Z,90.41
2018-12-04T09:56:41.431Z,90.25
2018-12-04T09:57:41.422Z,89.62
2018-12-04T09:58:41.398Z,90.31
2018-12-04T09:59:41.398Z,89.69
2018-12-04T10:00:41.390Z,90.20
2018-12-04T10:01:41.370Z,89.69
2018-12-04T10:02:41.374Z,89.59
2018-12-04T10:03:41.362Z,88.34
2018-12-04T10:04:41.344Z,89.07
2018-12-04T10:05:41.329Z,89.86
2018-12-04T10:06:41.340Z,88.71
2018-12-04T10:07:41.303Z,89.86
2018-12-04T10:08:41.438Z,89.48
2018-12-04T10:09:41.281Z,88.14
2018-12-04T10:10:41.269Z,88.71
2018-12-04T10:11:41.258Z,88.10
2018-12-04T10:12:41.350Z,88.71
2018-12-04T10:13:41.241Z,88.51
2018-12-04T10:14:41.221Z,88.61
2018-12-04T10:15:41.213Z,88.71
2018-12-04T10:16:41.385Z,88.10
2018-12-04T10:17:41.195Z,88.10
2018-12-04T10:18:41.348Z,87.89
2018-12-04T10:19:41.165Z,87.27
2018-12-04T10:20:41.181Z,87.89
2018-12-04T10:21:41.149Z,88.10
2018-12-04T10:22:41.133Z,87.89
2018-12-04T10:23:41.121Z,88.06
2018-12-04T10:24:41.121Z,87.65
2018-12-04T10:25:41.101Z,87.54
2018-12-04T10:26:41.094Z,87.95
2018-12-04T10:27:41.085Z,87.34
2018-12-04T10:28:41.101Z,87.85
2018-12-04T10:29:41.078Z,87.81
2018-12-04T10:30:41.041Z,87.13
2018-12-04T10:31:41.034Z,85.75
2018-12-04T10:32:41.045Z,87.34
2018-12-04T10:33:41.010Z,86.05
2018-12-04T10:34:41.003Z,86.98
2018-12-04T10:35:41.005Z,86.98
2018-12-04T10:36:41.001Z,85.85
2018-12-04T10:37:40.970Z,86.98
2018-12-04T10:38:40.962Z,85.23
2018-12-04T10:39:40.950Z,84.92
2018-12-04T10:40:40.931Z,84.81
2018-12-04T10:41:40.982Z,86.26
2018-12-04T10:42:40.913Z,85.64
2018-12-04T10:43:40.904Z,86.74
2018-12-04T10:44:40.897Z,85.09
2018-12-04T10:45:40.882Z,85.19
2018-12-04T10:46:40.886Z,85.30
2018-12-04T10:47:40.870Z,85.50
2018-12-04T10:48:40.854Z,84.78
2018-12-04T10:49:40.926Z,85.15
2018-12-04T10:50:40.826Z,84.94
2018-12-04T10:51:40.814Z,83.61
2018-12-04T10:52:40.960Z,83.71
2018-12-04T10:53:40.804Z,84.43
2018-12-04T10:54:40.772Z,83.81
2018-12-04T10:55:40.765Z,83.09
2018-12-04T10:56:40.811Z,83.71
2018-12-04T10:57:40.741Z,82.89
2018-12-04T10:58:40.752Z,83.19
2018-12-04T10:59:40.720Z,83.19
2018-12-04T11:00:40.708Z,85.05
2018-12-04T11:01:40.800Z,82.89
2018-12-04T11:02:40.690Z,83.67
2018-12-04T11:03:40.677Z,83.47
2018-12-04T11:04:40.679Z,83.05
2018-12-04T11:05:40.653Z,81.09
2018-12-04T11:06:40.644Z,82.02
2018-12-04T11:07:40.656Z,82.95
2018-12-04T11:08:40.622Z,83.73
2018-12-04T11:09:40.637Z,81.61
2018-12-04T11:10:40.596Z,83.12
2018-12-04T11:11:40.593Z,81.57
2018-12-04T11:12:40.573Z,80.75
2018-12-04T11:13:40.574Z,81.20
2018-12-04T11:14:40.588Z,81.40
2018-12-04T11:15:40.556Z,81.81
2018-12-04T11:16:40.543Z,82.23
2018-12-04T11:17:40.521Z,83.15
2018-12-04T11:18:40.510Z,81.88
2018-12-04T11:19:40.497Z,80.58
2018-12-04T11:20:40.485Z,80.02
2018-12-04T11:21:40.514Z,83.12
2018-12-04T11:22:40.473Z,81.57
2018-12-04T11:23:40.463Z,80.85
2018-12-04T11:24:40.448Z,81.02
2018-12-04T11:25:40.436Z,79.79
2018-12-04T11:26:40.470Z,81.02
2018-12-04T11:27:40.420Z,80.77
2018-12-04T11:28:40.396Z,78.55
2018-12-04T11:29:40.452Z,79.37
2018-12-04T11:30:40.373Z,79.37
2018-12-04T11:31:40.377Z,80.81
2018-12-04T11:32:40.370Z,79.54
2018-12-04T11:33:40.344Z,79.64
2018-12-04T11:34:40.329Z,79.23
2018-12-04T11:35:55.172Z,79.13
2018-12-04T11:36:40.385Z,79.13
2018-12-04T11:37:40.293Z,78.41
2018-12-04T11:38:40.297Z,77.65
2018-12-04T11:39:40.330Z,77.58
2018-12-04T11:40:40.265Z,77.58
2018-12-04T11:41:40.259Z,78.34
2018-12-04T11:42:40.257Z,79.79
2018-12-04T11:43:40.246Z,81.91
2018-12-04T11:44:40.236Z,79.44
2018-12-04T11:45:40.210Z,78.58
2018-12-04T11:46:40.197Z,78.47
2018-12-04T11:47:40.185Z,77.38
2018-12-04T11:48:40.176Z,78.30
2018-12-04T11:49:40.188Z,78.55
2018-12-04T11:50:40.365Z,79.16
2018-12-04T11:51:40.144Z,79.85
2018-12-04T11:52:40.127Z,78.96
2018-12-04T11:53:40.170Z,79.88
2018-12-04T11:54:40.109Z,78.82
2018-12-04T11:55:40.967Z,78.55
2018-12-04T11:56:40.092Z,79.79
2018-12-04T11:57:40.076Z,78.96
2018-12-04T11:58:40.077Z,79.99
2018-12-04T11:59:40.121Z,80.26
2018-12-04T12:00:40.041Z,80.47
2018-12-04T12:01:40.032Z,81.70
2018-12-04T12:03:31.397Z,79.75
2018-12-04T12:04:31.399Z,79.64
2018-12-04T12:05:31.373Z,79.50
2018-12-04T12:06:31.389Z,79.30
2018-12-04T12:07:31.349Z,79.61
2018-12-04T12:08:31.341Z,82.86
2018-12-04T12:09:31.329Z,78.20
2018-12-04T12:10:31.337Z,75.32
2018-12-04T12:11:31.304Z,75.42
2018-12-04T12:12:31.305Z,75.93
2018-12-04T12:13:31.425Z,75.42
2018-12-04T12:14:31.273Z,75.73
2018-12-04T12:15:31.261Z,73.91
2018-12-04T12:16:31.289Z,73.54
2018-12-04T12:17:31.236Z,74.57
2018-12-04T12:18:31.230Z,74.15
2018-12-04T12:19:31.221Z,75.39
2018-12-04T12:20:31.209Z,74.36
2018-12-04T12:21:31.192Z,73.23
2018-12-04T12:22:31.205Z,73.74
2018-12-04T12:23:31.188Z,72.92
2018-12-04T12:24:31.162Z,73.50
2018-12-04T12:25:31.149Z,74.22
2018-12-04T12:26:31.137Z,72.99
2018-12-04T12:27:31.126Z,73.64
2018-12-04T12:28:31.134Z,74.02
2018-12-04T12:29:31.116Z,73.74
2018-12-04T12:30:31.099Z,73.64
2018-12-04T12:31:31.083Z,73.74
2018-12-04T12:32:31.073Z,72.92
2018-12-04T12:33:31.059Z,73.64
2018-12-04T12:34:31.059Z,73.57
2018-12-04T12:35:31.055Z,73.23
2018-12-04T12:36:31.027Z,73.98
2018-12-04T12:37:31.014Z,74.08
2018-12-04T12:38:31.002Z,73.57
2018-12-04T12:39:31.010Z,73.36
2018-12-04T12:40:30.989Z,73.78
2018-12-04T12:41:30.986Z,74.08
2018-12-04T12:42:30.966Z,73.98
2018-12-04T12:43:30.950Z,74.80
2018-12-04T12:44:30.934Z,74.77
2018-12-04T12:45:30.929Z,73.88
2018-12-04T12:46:30.911Z,73.57
2018-12-04T12:47:30.922Z,72.85
2018-12-04T12:48:30.894Z,73.57
2018-12-04T12:49:30.881Z,73.68
2018-12-04T12:50:30.880Z,73.47
2018-12-04T12:51:30.857Z,73.16
2018-12-04T12:52:30.845Z,73.16
2018-12-04T12:53:30.845Z,73.88